Time,TemperatureF,DewpointF,PressureIn,WindDirection,WindDirectionDegrees,WindSpeedMPH,WindSpeedGustMPH,Humidity,HourlyPrecipIn,Conditions,Clouds,dailyrainin,SoftwareType,DateUTC
2013-02-12 00:01:00,6.0,-3.0,29.96,North,-999,-999.0,-999.0,64,-99.99,,,-99.99,,2013-02-12 07:01:00,
2013-02-12 00:11:00,6.0,-3.0,29.97,North,-999,-999.0,-999.0,64,-99.99,,,-99.99,,2013-02-12 07:11:00,
2013-02-12 00:21:00,6.0,-3.0,29.97,North,-999,-999.0,-999.0,64,-99.99,,,-99.99,,2013-02-12 07:21:00,
2013-02-12 00:31:00,6.0,-3.0,29.97,North,-999,-999.0,-999.0,64,-99.99,,,-99.99,,2013-02-12 07:31:00,
2013-02-12 00:42:00,5.0,-4.0,29.98,North,-999,-999.0,-999.0,66,-99.99,,,-99.99,,2013-02-12 07:42:00,
2013-02-12 00:51:00,5.0,-4.0,29.98,North,-999,-999.0,-999.0,66,-99.99,,,-99.99,,2013-02-12 07:51:00,
2013-02-12 01:01:00,5.0,-4.0,29.98,North,-999,-999.0,-999.0,66,-99.99,,,-99.99,,2013-02-12 08:01:00,
2013-02-12 01:11:00,5.0,-4.0,29.97,North,-999,-999.0,-999.0,65,-99.99,,,-99.99,,2013-02-12 08:11:00,
2013-02-12 01:21:00,5.0,-4.0,29.97,North,-999,-999.0,-999.0,65,-99.99,,,-99.99,,2013-02-12 08:21:00,
2013-02-12 01:32:00,5.0,-4.0,29.97,North,-999,-999.0,-999.0,65,-99.99,,,-99.99,,2013-02-12 08:32:00,
2013-02-12 01:41:00,6.0,-4.0,29.98,North,-999,-999.0,-999.0,62,-99.99,,,-99.99,,2013-02-12 08:41:00,
2013-02-12 01:52:00,6.0,-4.0,29.98,North,-999,-999.0,-999.0,62,-99.99,,,-99.99,,2013-02-12 08:52:00,
2013-02-12 02:01:00,6.0,-4.0,29.98,North,-999,-999.0,-999.0,62,-99.99,,,-99.99,,2013-02-12 09:01:00,
2013-02-12 02:11:00,7.0,-4.0,29.98,North,-999,-999.0,-999.0,61,-99.99,,,-99.99,,2013-02-12 09:11:00,
2013-02-12 02:21:00,7.0,-4.0,29.98,North,-999,-999.0,-999.0,61,-99.99,,,-99.99,,2013-02-12 09:21:00,
2013-02-12 02:32:00,7.0,-4.0,29.98,North,-999,-999.0,-999.0,61,-99.99,,,-99.99,,2013-02-12 09:32:00,
2013-02-12 02:42:00,5.0,-4.0,30.00,North,-999,-999.0,-999.0,63,-99.99,,,-99.99,,2013-02-12 09:42:00,
2013-02-12 02:51:00,5.0,-4.0,30.00,North,-999,-999.0,-999.0,63,-99.99,,,-99.99,,2013-02-12 09:51:00,
2013-02-12 03:01:00,5.0,-4.0,30.00,North,-999,-999.0,-999.0,63,-99.99,,,-99.99,,2013-02-12 10:01:00,
2013-02-12 03:11:00,4.0,-5.0,29.99,North,-999,-999.0,-999.0,63,-99.99,,,-99.99,,2013-02-12 10:11:00,
2013-02-12 03:21:00,4.0,-5.0,29.99,North,-999,-999.0,-999.0,63,-99.99,,,-99.99,,2013-02-12 10:21:00,
2013-02-12 03:32:00,4.0,-5.0,29.99,North,-999,-999.0,-999.0,63,-99.99,,,-99.99,,2013-02-12 10:32:00,
2013-02-12 03:43:00,0.0,-8.0,29.99,North,-999,-999.0,-999.0,69,-99.99,,,-99.99,,2013-02-12 10:43:00,
2013-02-12 03:51:00,0.0,-8.0,29.99,North,-999,-999.0,-999.0,69,-99.99,,,-99.99,,2013-02-12 10:51:00,
2013-02-12 04:01:00,0.0,-8.0,29.99,North,-999,-999.0,-999.0,69,-99.99,,,-99.99,,2013-02-12 11:01:00,
2013-02-12 04:11:00,3.0,-7.0,29.99,North,-999,-999.0,-999.0,61,-99.99,,,-99.99,,2013-02-12 11:11:00,
2013-02-12 04:21:00,3.0,-7.0,29.99,North,-999,-999.0,-999.0,61,-99.99,,,-99.99,,2013-02-12 11:21:00,
2013-02-12 04:31:00,3.0,-7.0,29.99,North,-999,-999.0,-999.0,61,-99.99,,,-99.99,,2013-02-12 11:31:00,
2013-02-12 04:41:00,4.0,-6.0,29.99,North,-999,-999.0,-999.0,64,-99.99,,,-99.99,,2013-02-12 11:41:00,
2013-02-12 04:52:00,4.0,-6.0,29.99,North,-999,-999.0,-999.0,64,-99.99,,,-99.99,,2013-02-12 11:52:00,
2013-02-12 05:01:00,4.0,-6.0,29.99,North,-999,-999.0,-999.0,64,-99.99,,,-99.99,,2013-02-12 12:01:00,
2013-02-12 05:11:00,0.0,-7.0,29.99,North,-999,-999.0,-999.0,69,-99.99,,,-99.99,,2013-02-12 12:11:00,
2013-02-12 05:21:00,0.0,-7.0,29.99,North,-999,-999.0,-999.0,69,-99.99,,,-99.99,,2013-02-12 12:21:00,
2013-02-12 05:32:00,0.0,-7.0,29.99,North,-999,-999.0,-999.0,69,-99.99,,,-99.99,,2013-02-12 12:32:00,
2013-02-12 05:42:00,3.0,-5.0,29.99,North,-999,-999.0,-999.0,67,-99.99,,,-99.99,,2013-02-12 12:42:00,
2013-02-12 05:52:00,3.0,-5.0,29.99,North,-999,-999.0,-999.0,67,-99.99,,,-99.99,,2013-02-12 12:52:00,
2013-02-12 06:01:00,3.0,-5.0,29.99,North,-999,-999.0,-999.0,67,-99.99,,,-99.99,,2013-02-12 13:01:00,
2013-02-12 06:11:00,4.0,-6.0,29.99,North,-999,-999.0,-999.0,62,-99.99,,,-99.99,,2013-02-12 13:11:00,
2013-02-12 06:22:00,4.0,-6.0,29.99,North,-999,-999.0,-999.0,62,-99.99,,,-99.99,,2013-02-12 13:22:00,
2013-02-12 06:32:00,4.0,-6.0,29.99,North,-999,-999.0,-999.0,62,-99.99,,,-99.99,,2013-02-12 13:32:00,
2013-02-12 06:42:00,4.0,-6.0,29.99,North,-999,-999.0,-999.0,62,-99.99,,,-99.99,,2013-02-12 13:42:00,
2013-02-12 06:52:00,2.0,-6.0,29.99,North,-999,-999.0,-999.0,68,-99.99,,,-99.99,,2013-02-12 13:52:00,
2013-02-12 07:01:00,2.0,-6.0,29.99,North,-999,-999.0,-999.0,68,-99.99,,,-99.99,,2013-02-12 14:01:00,
2013-02-12 07:12:00,4.0,-5.0,30.00,North,-999,-999.0,-999.0,63,-99.99,,,-99.99,,2013-02-12 14:12:00,
2013-02-12 07:21:00,4.0,-5.0,30.00,North,-999,-999.0,-999.0,63,-99.99,,,-99.99,,2013-02-12 14:21:00,
2013-02-12 07:32:00,4.0,-5.0,30.00,North,-999,-999.0,-999.0,63,-99.99,,,-99.99,,2013-02-12 14:32:00,
2013-02-12 07:42:00,2.0,-6.0,30.00,North,-999,-999.0,-999.0,68,-99.99,,,-99.99,,2013-02-12 14:42:00,
2013-02-12 07:52:00,2.0,-6.0,30.00,North,-999,-999.0,-999.0,68,-99.99,,,-99.99,,2013-02-12 14:52:00,
2013-02-12 08:01:00,2.0,-6.0,30.00,North,-999,-999.0,-999.0,68,-99.99,,,-99.99,,2013-02-12 15:01:00,
2013-02-12 08:11:00,2.0,-6.0,30.00,North,-999,-999.0,-999.0,68,-99.99,,,-99.99,,2013-02-12 15:11:00,
2013-02-12 08:21:00,2.0,-6.0,30.00,North,-999,-999.0,-999.0,68,-99.99,,,-99.99,,2013-02-12 15:21:00,
2013-02-12 08:42:00,4.0,-5.0,30.01,North,-999,-999.0,-999.0,64,-99.99,,,-99.99,,2013-02-12 15:42:00,
2013-02-12 08:52:00,4.0,-5.0,30.01,North,-999,-999.0,-999.0,64,-99.99,,,-99.99,,2013-02-12 15:52:00,
2013-02-12 09:22:00,8.0,-2.0,30.03,North,-999,-999.0,-999.0,64,-99.99,,,-99.99,,2013-02-12 16:22:00,
2013-02-12 09:32:00,8.0,-2.0,30.03,North,-999,-999.0,-999.0,64,-99.99,,,-99.99,,2013-02-12 16:32:00,
2013-02-12 09:41:00,8.0,-2.0,30.03,North,-999,-999.0,-999.0,64,-99.99,,,-99.99,,2013-02-12 16:41:00,
2013-02-12 09:51:00,11.0,-2.0,30.03,North,-999,-999.0,-999.0,55,-99.99,,,-99.99,,2013-02-12 16:51:00,
2013-02-12 10:01:00,11.0,-2.0,30.03,North,-999,-999.0,-999.0,55,-99.99,,,-99.99,,2013-02-12 17:01:00,
2013-02-12 10:12:00,13.0,0.0,30.04,North,-999,-999.0,-999.0,56,-99.99,,,-99.99,,2013-02-12 17:12:00,
2013-02-12 10:21:00,13.0,0.0,30.04,North,-999,-999.0,-999.0,56,-99.99,,,-99.99,,2013-02-12 17:21:00,
2013-02-12 10:32:00,13.0,0.0,30.04,North,-999,-999.0,-999.0,56,-99.99,,,-99.99,,2013-02-12 17:32:00,
2013-02-12 10:42:00,11.0,2.0,30.05,North,-999,-999.0,-999.0,65,-99.99,,,-99.99,,2013-02-12 17:42:00,
2013-02-12 10:52:00,11.0,2.0,30.05,North,-999,-999.0,-999.0,65,-99.99,,,-99.99,,2013-02-12 17:52:00,
2013-02-12 11:01:00,11.0,2.0,30.05,North,-999,-999.0,-999.0,65,-99.99,,,-99.99,,2013-02-12 18:01:00,
2013-02-12 11:11:00,13.0,1.0,30.05,North,-999,-999.0,-999.0,58,-99.99,,,-99.99,,2013-02-12 18:11:00,
2013-02-12 11:22:00,13.0,1.0,30.05,North,-999,-999.0,-999.0,58,-99.99,,,-99.99,,2013-02-12 18:22:00,
2013-02-12 11:32:00,13.0,1.0,30.05,North,-999,-999.0,-999.0,58,-99.99,,,-99.99,,2013-02-12 18:32:00,
2013-02-12 11:41:00,15.0,2.0,30.04,North,-999,-999.0,-999.0,54,-99.99,,,-99.99,,2013-02-12 18:41:00,
2013-02-12 11:51:00,15.0,2.0,30.04,North,-999,-999.0,-999.0,54,-99.99,,,-99.99,,2013-02-12 18:51:00,
2013-02-12 12:02:00,15.0,2.0,30.04,North,-999,-999.0,-999.0,54,-99.99,,,-99.99,,2013-02-12 19:02:00,
2013-02-12 12:11:00,16.0,2.0,30.03,North,-999,-999.0,-999.0,53,-99.99,,,-99.99,,2013-02-12 19:11:00,
2013-02-12 12:21:00,16.0,2.0,30.03,North,-999,-999.0,-999.0,53,-99.99,,,-99.99,,2013-02-12 19:21:00,
2013-02-12 12:31:00,16.0,2.0,30.03,North,-999,-999.0,-999.0,53,-99.99,,,-99.99,,2013-02-12 19:31:00,
2013-02-12 12:41:00,17.0,0.0,30.02,North,-999,-999.0,-999.0,46,-99.99,,,-99.99,,2013-02-12 19:41:00,
2013-02-12 12:51:00,17.0,0.0,30.02,North,-999,-999.0,-999.0,46,-99.99,,,-99.99,,2013-02-12 19:51:00,
2013-02-12 13:01:00,17.0,0.0,30.02,North,-999,-999.0,-999.0,46,-99.99,,,-99.99,,2013-02-12 20:01:00,
2013-02-12 13:11:00,17.0,2.0,30.02,North,-999,-999.0,-999.0,50,-99.99,,,-99.99,,2013-02-12 20:11:00,
2013-02-12 13:21:00,17.0,2.0,30.02,North,-999,-999.0,-999.0,50,-99.99,,,-99.99,,2013-02-12 20:21:00,
2013-02-12 13:31:00,17.0,2.0,30.02,North,-999,-999.0,-999.0,50,-99.99,,,-99.99,,2013-02-12 20:31:00,
2013-02-12 13:42:00,18.0,3.0,30.01,North,-999,-999.0,-999.0,52,-99.99,,,-99.99,,2013-02-12 20:42:00,
2013-02-12 13:52:00,18.0,3.0,30.01,North,-999,-999.0,-999.0,52,-99.99,,,-99.99,,2013-02-12 20:52:00,
2013-02-12 14:01:00,18.0,3.0,30.01,North,-999,-999.0,-999.0,52,-99.99,,,-99.99,,2013-02-12 21:01:00,
2013-02-12 14:11:00,18.0,5.0,30.00,North,-999,-999.0,-999.0,54,-99.99,,,-99.99,,2013-02-12 21:11:00,
2013-02-12 14:21:00,18.0,5.0,30.00,North,-999,-999.0,-999.0,54,-99.99,,,-99.99,,2013-02-12 21:21:00,
2013-02-12 14:31:00,18.0,5.0,30.00,North,-999,-999.0,-999.0,54,-99.99,,,-99.99,,2013-02-12 21:31:00,
2013-02-12 14:42:00,20.0,4.0,30.00,North,-999,-999.0,-999.0,48,-99.99,,,-99.99,,2013-02-12 21:42:00,
2013-02-12 14:51:00,20.0,4.0,30.00,North,-999,-999.0,-999.0,48,-99.99,,,-99.99,,2013-02-12 21:51:00,
2013-02-12 15:01:00,20.0,4.0,30.00,North,-999,-999.0,-999.0,48,-99.99,,,-99.99,,2013-02-12 22:01:00,
2013-02-12 15:12:00,19.0,5.0,30.00,North,-999,-999.0,-999.0,52,-99.99,,,-99.99,,2013-02-12 22:12:00,
2013-02-12 15:21:00,19.0,5.0,30.00,North,-999,-999.0,-999.0,52,-99.99,,,-99.99,,2013-02-12 22:21:00,
2013-02-12 15:32:00,19.0,5.0,30.00,North,-999,-999.0,-999.0,52,-99.99,,,-99.99,,2013-02-12 22:32:00,
2013-02-12 15:42:00,19.0,7.0,30.00,North,-999,-999.0,-999.0,59,-99.99,,,-99.99,,2013-02-12 22:42:00,
2013-02-12 15:51:00,19.0,7.0,30.00,North,-999,-999.0,-999.0,59,-99.99,,,-99.99,,2013-02-12 22:51:00,
2013-02-12 16:01:00,19.0,7.0,30.00,North,-999,-999.0,-999.0,59,-99.99,,,-99.99,,2013-02-12 23:01:00,
2013-02-12 16:11:00,19.0,8.0,30.00,North,-999,-999.0,-999.0,62,-99.99,,,-99.99,,2013-02-12 23:11:00,
2013-02-12 16:21:00,19.0,8.0,30.00,North,-999,-999.0,-999.0,62,-99.99,,,-99.99,,2013-02-12 23:21:00,
2013-02-12 16:32:00,19.0,8.0,30.00,North,-999,-999.0,-999.0,62,-99.99,,,-99.99,,2013-02-12 23:32:00,
2013-02-12 16:42:00,19.0,9.0,29.99,North,-999,-999.0,-999.0,64,-99.99,,,-99.99,,2013-02-12 23:42:00,
2013-02-12 16:52:00,19.0,9.0,29.99,North,-999,-999.0,-999.0,64,-99.99,,,-99.99,,2013-02-12 23:52:00,
2013-02-12 17:02:00,19.0,9.0,29.99,North,-999,-999.0,-999.0,64,-99.99,,,-99.99,,2013-02-13 00:02:00,
2013-02-12 17:11:00,19.0,9.0,29.99,North,-999,-999.0,-999.0,64,-99.99,,,-99.99,,2013-02-13 00:11:00,
2013-02-12 17:21:00,19.0,9.0,29.99,North,-999,-999.0,-999.0,64,-99.99,,,-99.99,,2013-02-13 00:21:00,
2013-02-12 17:42:00,17.0,9.0,30.00,North,-999,-999.0,-999.0,72,-99.99,,,-99.99,,2013-02-13 00:42:00,
2013-02-12 17:52:00,17.0,9.0,30.00,North,-999,-999.0,-999.0,72,-99.99,,,-99.99,,2013-02-13 00:52:00,
2013-02-12 18:01:00,17.0,9.0,30.00,North,-999,-999.0,-999.0,72,-99.99,,,-99.99,,2013-02-13 01:01:00,
2013-02-12 18:11:00,15.0,8.0,30.01,North,-999,-999.0,-999.0,72,-99.99,,,-99.99,,2013-02-13 01:11:00,
2013-02-12 18:21:00,15.0,8.0,30.01,North,-999,-999.0,-999.0,72,-99.99,,,-99.99,,2013-02-13 01:21:00,
2013-02-12 18:31:00,15.0,8.0,30.01,North,-999,-999.0,-999.0,72,-99.99,,,-99.99,,2013-02-13 01:31:00,
2013-02-12 18:42:00,13.0,7.0,30.02,North,-999,-999.0,-999.0,75,-99.99,,,-99.99,,2013-02-13 01:42:00,
2013-02-12 18:51:00,13.0,7.0,30.02,North,-999,-999.0,-999.0,75,-99.99,,,-99.99,,2013-02-13 01:51:00,
2013-02-12 19:01:00,13.0,7.0,30.02,North,-999,-999.0,-999.0,75,-99.99,,,-99.99,,2013-02-13 02:01:00,
2013-02-12 19:11:00,11.0,6.0,30.03,North,-999,-999.0,-999.0,77,-99.99,,,-99.99,,2013-02-13 02:11:00,
2013-02-12 19:21:00,11.0,6.0,30.03,North,-999,-999.0,-999.0,77,-99.99,,,-99.99,,2013-02-13 02:21:00,
2013-02-12 19:31:00,11.0,6.0,30.03,North,-999,-999.0,-999.0,77,-99.99,,,-99.99,,2013-02-13 02:31:00,
2013-02-12 19:41:00,10.0,5.0,30.03,North,-999,-999.0,-999.0,76,-99.99,,,-99.99,,2013-02-13 02:41:00,
2013-02-12 19:52:00,10.0,5.0,30.03,North,-999,-999.0,-999.0,76,-99.99,,,-99.99,,2013-02-13 02:52:00,
2013-02-12 20:01:00,10.0,5.0,30.03,North,-999,-999.0,-999.0,76,-99.99,,,-99.99,,2013-02-13 03:01:00,
2013-02-12 20:11:00,10.0,4.0,30.02,North,-999,-999.0,-999.0,75,-99.99,,,-99.99,,2013-02-13 03:11:00,
2013-02-12 20:21:00,10.0,4.0,30.02,North,-999,-999.0,-999.0,75,-99.99,,,-99.99,,2013-02-13 03:21:00,
2013-02-12 20:32:00,10.0,4.0,30.02,North,-999,-999.0,-999.0,75,-99.99,,,-99.99,,2013-02-13 03:32:00,
2013-02-12 20:42:00,8.0,3.0,30.02,North,-999,-999.0,-999.0,78,-99.99,,,-99.99,,2013-02-13 03:42:00,
2013-02-12 20:51:00,8.0,3.0,30.02,North,-999,-999.0,-999.0,78,-99.99,,,-99.99,,2013-02-13 03:51:00,
2013-02-12 21:01:00,8.0,3.0,30.02,North,-999,-999.0,-999.0,78,-99.99,,,-99.99,,2013-02-13 04:01:00,
2013-02-12 21:11:00,10.0,3.0,30.02,North,-999,-999.0,-999.0,74,-99.99,,,-99.99,,2013-02-13 04:11:00,
2013-02-12 21:21:00,10.0,3.0,30.02,North,-999,-999.0,-999.0,74,-99.99,,,-99.99,,2013-02-13 04:21:00,
2013-02-12 21:32:00,10.0,3.0,30.02,North,-999,-999.0,-999.0,74,-99.99,,,-99.99,,2013-02-13 04:32:00,
2013-02-12 21:41:00,13.0,4.0,30.01,North,-999,-999.0,-999.0,67,-99.99,,,-99.99,,2013-02-13 04:41:00,
2013-02-12 21:51:00,13.0,4.0,30.01,North,-999,-999.0,-999.0,67,-99.99,,,-99.99,,2013-02-13 04:51:00,
2013-02-12 22:01:00,13.0,4.0,30.01,North,-999,-999.0,-999.0,67,-99.99,,,-99.99,,2013-02-13 05:01:00,
2013-02-12 22:11:00,13.0,3.0,30.02,North,-999,-999.0,-999.0,65,-99.99,,,-99.99,,2013-02-13 05:11:00,
2013-02-12 22:22:00,13.0,3.0,30.02,North,-999,-999.0,-999.0,65,-99.99,,,-99.99,,2013-02-13 05:22:00,
2013-02-12 22:31:00,13.0,3.0,30.02,North,-999,-999.0,-999.0,65,-99.99,,,-99.99,,2013-02-13 05:31:00,
2013-02-12 22:42:00,8.0,1.0,30.03,North,-999,-999.0,-999.0,70,-99.99,,,-99.99,,2013-02-13 05:42:00,
2013-02-12 22:52:00,8.0,1.0,30.03,North,-999,-999.0,-999.0,70,-99.99,,,-99.99,,2013-02-13 05:52:00,
2013-02-12 23:02:00,8.0,1.0,30.03,North,-999,-999.0,-999.0,70,-99.99,,,-99.99,,2013-02-13 06:02:00,
2013-02-12 23:11:00,9.0,3.0,30.03,North,-999,-999.0,-999.0,73,-99.99,,,-99.99,,2013-02-13 06:11:00,
2013-02-12 23:21:00,9.0,3.0,30.03,North,-999,-999.0,-999.0,73,-99.99,,,-99.99,,2013-02-13 06:21:00,
2013-02-12 23:32:00,9.0,3.0,30.03,North,-999,-999.0,-999.0,73,-99.99,,,-99.99,,2013-02-13 06:32:00,
2013-02-12 23:42:00,16.0,6.0,30.03,North,-999,-999.0,-999.0,64,-99.99,,,-99.99,,2013-02-13 06:42:00,
2013-02-12 23:51:00,16.0,6.0,30.03,North,-999,-999.0,-999.0,64,-99.99,,,-99.99,,2013-02-13 06:51:00,